Time;durP1;ratioP1;P1;durP2;ratioP2;P2;SDS_P1;SDS_P2;PMS_P1;PMS_P2;Temp;Humidity;BMP_temperature;BMP_pressure;BME280_temperature;BME280_humidity;BME280_pressure;Samples;Min_cycle;Max_cycle;Signal;HPM_P1;HPM_P2
2022/03/07 00:02:13;;;;;;;5.93;3.67;;;0.00;99.90;;;;;;5107499;28;20044;-56
2022/03/07 00:04:39;;;;;;;12.65;5.18;;;0.00;99.90;;;;;;5109114;28;20158;-65
2022/03/07 00:07:05;;;;;;;8.05;4.00;;;-0.10;99.90;;;;;;5110333;28;20179;-55
2022/03/07 00:09:31;;;;;;;7.38;3.30;;;-0.10;99.90;;;;;;5110738;28;20151;-56
2022/03/07 00:11:56;;;;;;;6.47;4.13;;;-0.10;99.90;;;;;;5108018;28;20569;-56
2022/03/07 00:14:22;;;;;;;13.82;4.13;;;-0.20;99.90;;;;;;5104811;28;20532;-55
2022/03/07 00:16:48;;;;;;;6.28;3.92;;;-0.20;99.90;;;;;;5080744;28;20135;-56
2022/03/07 00:19:14;;;;;;;4.60;3.10;;;-0.20;99.90;;;;;;5095798;27;20427;-55
2022/03/07 00:21:40;;;;;;;5.78;3.08;;;-0.30;99.90;;;;;;5095630;28;20262;-56
2022/03/07 00:24:07;;;;;;;6.78;3.58;;;-0.30;99.90;;;;;;5089826;28;20079;-55
2022/03/07 00:26:33;;;;;;;5.90;2.67;;;-0.30;99.90;;;;;;5089706;28;20101;-56
2022/03/07 00:28:59;;;;;;;8.23;3.45;;;-0.40;99.90;;;;;;5109148;28;20040;-68
2022/03/07 00:31:24;;;;;;;7.78;2.85;;;-0.40;99.90;;;;;;5109972;28;20071;-56
2022/03/07 00:33:51;;;;;;;6.50;3.13;;;-0.40;99.90;;;;;;5109981;28;20094;-56
2022/03/07 00:36:18;;;;;;;4.55;2.78;;;-0.40;99.90;;;;;;5109628;28;20519;-56
2022/03/07 00:38:44;;;;;;;5.28;3.35;;;-0.40;99.90;;;;;;5109806;28;20052;-60
2022/03/07 00:41:11;;;;;;;3.83;2.65;;;-0.50;99.90;;;;;;5109930;28;20062;-57
2022/03/07 00:43:38;;;;;;;4.65;2.60;;;-0.50;99.90;;;;;;5108869;28;20039;-56
2022/03/07 00:46:04;;;;;;;4.05;2.55;;;-0.50;99.90;;;;;;5109397;28;20047;-56
2022/03/07 00:48:29;;;;;;;3.95;3.10;;;-0.60;99.90;;;;;;5109256;28;20046;-56
2022/03/07 00:50:55;;;;;;;6.13;3.10;;;-0.60;99.90;;;;;;5109270;28;20047;-57
2022/03/07 00:53:23;;;;;;;4.13;2.63;;;-0.60;99.90;;;;;;5109535;28;20101;-56
2022/03/07 00:55:50;;;;;;;7.40;2.90;;;-0.70;99.90;;;;;;5109549;28;20036;-64
2022/03/07 00:58:16;;;;;;;7.68;2.97;;;-0.70;99.90;;;;;;5104117;28;20043;-58
2022/03/07 01:00:42;;;;;;;4.60;2.75;;;-0.70;99.90;;;;;;5108265;28;20048;-56
2022/03/07 01:03:09;;;;;;;3.40;1.90;;;-0.70;99.90;;;;;;5106447;28;20119;-56
2022/03/07 01:05:35;;;;;;;6.03;2.83;;;-0.70;99.90;;;;;;5089067;28;20048;-56
2022/03/07 01:08:01;;;;;;;11.25;3.60;;;-0.70;99.90;;;;;;5087864;28;20047;-57
2022/03/07 01:10:27;;;;;;;5.15;2.50;;;-0.80;99.90;;;;;;5092285;28;20098;-56
2022/03/07 01:12:53;;;;;;;6.10;2.90;;;-0.80;99.90;;;;;;5107872;28;20342;-57
2022/03/07 01:15:19;;;;;;;5.38;3.03;;;-0.80;99.90;;;;;;5095047;28;20135;-58
2022/03/07 01:17:44;;;;;;;10.27;2.83;;;-0.90;99.90;;;;;;5096177;28;20044;-59
2022/03/07 01:20:11;;;;;;;7.50;3.30;;;-0.90;99.90;;;;;;5087250;28;20048;-64
2022/03/07 01:22:37;;;;;;;10.30;3.88;;;-0.90;99.90;;;;;;5087039;28;20772;-56
2022/03/07 01:25:05;;;;;;;6.80;3.53;;;-0.90;99.90;;;;;;5087663;28;20040;-56
2022/03/07 01:27:31;;;;;;;6.85;3.38;;;-0.90;99.90;;;;;;5095580;28;20059;-56
2022/03/07 01:29:56;;;;;;;4.03;2.88;;;-0.90;99.90;;;;;;5107402;28;20047;-57
2022/03/07 01:32:22;;;;;;;4.85;3.17;;;-0.90;99.90;;;;;;5107381;28;20562;-56
2022/03/07 01:34:48;;;;;;;5.22;3.78;;;-1.00;99.90;;;;;;5107634;28;20090;-56
2022/03/07 01:37:14;;;;;;;7.32;3.10;;;-1.00;99.90;;;;;;5107223;28;20139;-56
2022/03/07 01:39:40;;;;;;;3.53;2.13;;;-1.00;99.90;;;;;;5106820;28;20869;-56
2022/03/07 01:42:06;;;;;;;5.90;2.92;;;-1.10;99.90;;;;;;5108719;28;20042;-56
2022/03/07 01:44:32;;;;;;;9.30;4.40;;;-1.00;99.90;;;;;;5103788;28;20046;-56
2022/03/07 01:46:58;;;;;;;8.70;3.28;;;-1.10;99.90;;;;;;5087797;28;20069;-56
2022/03/07 01:49:24;;;;;;;6.22;3.15;;;-1.00;99.90;;;;;;5088318;28;20040;-56
2022/03/07 01:51:51;;;;;;;5.72;3.50;;;-1.00;99.90;;;;;;5087614;28;20052;-57
2022/03/07 01:54:19;;;;;;;8.82;2.75;;;-1.10;99.90;;;;;;5087458;28;20044;-56
2022/03/07 01:56:49;;;;;;;4.40;3.00;;;0.70;99.90;;;;;;5086578;28;20036;-56
2022/03/07 01:59:18;;;;;;;7.53;3.53;;;-1.10;99.90;;;;;;5087649;28;20373;-56
2022/03/07 02:01:44;;;;;;;8.85;2.67;;;-1.20;99.90;;;;;;5087861;28;20051;-56
2022/03/07 02:04:10;;;;;;;6.15;2.90;;;-1.20;99.90;;;;;;5102554;28;20035;-59
2022/03/07 02:06:39;;;;;;;5.32;3.05;;;-1.20;99.90;;;;;;5108396;28;20050;-60
2022/03/07 02:09:07;;;;;;;4.40;3.00;;;-1.20;99.90;;;;;;5106914;28;20031;-56
2022/03/07 02:11:33;;;;;;;5.30;2.72;;;-1.20;99.90;;;;;;5108300;28;20054;-60
2022/03/07 02:14:20;;;;;;;7.50;3.63;;;-1.20;99.90;;;;;;5105133;28;20044;-60
2022/03/07 02:16:46;;;;;;;4.53;2.95;;;-1.30;99.90;;;;;;5097432;28;20055;-59
2022/03/07 02:19:12;;;;;;;4.55;2.70;;;-1.30;99.90;;;;;;5087372;28;20131;-59
2022/03/07 02:21:48;;;;;;;7.03;2.97;;;-1.30;99.90;;;;;;5087755;28;20051;-63
2022/03/07 02:24:16;;;;;;;6.18;3.22;;;-1.30;99.90;;;;;;5087157;28;20050;-68
2022/03/07 02:26:42;;;;;;;5.90;2.85;;;-1.40;99.90;;;;;;5088234;28;20070;-73
2022/03/07 02:29:09;;;;;;;3.58;2.95;;;-1.40;99.90;;;;;;5107885;28;20046;-68
2022/03/07 02:31:36;;;;;;;4.60;2.88;;;-1.40;99.90;;;;;;5107888;28;20140;-57
2022/03/07 02:34:02;;;;;;;7.78;2.72;;;-1.40;99.90;;;;;;5106160;28;20063;-66
2022/03/07 02:36:28;;;;;;;6.95;2.97;;;-1.50;99.90;;;;;;5107774;28;20078;-70
2022/03/07 02:38:54;;;;;;;7.70;2.90;;;-1.50;99.90;;;;;;5108087;28;20472;-56
2022/03/07 02:41:20;;;;;;;6.03;2.50;;;-1.50;99.90;;;;;;5107933;28;20481;-62
2022/03/07 02:43:45;;;;;;;5.82;2.97;;;-1.50;99.90;;;;;;5087871;28;20147;-72
2022/03/07 02:46:11;;;;;;;4.45;2.72;;;-1.50;99.90;;;;;;5087734;28;20035;-73
2022/03/07 02:48:37;;;;;;;3.95;2.35;;;-1.60;99.90;;;;;;5087066;28;20048;-74
2022/03/07 02:51:03;;;;;;;7.30;3.30;;;-1.60;99.90;;;;;;5087843;28;20047;-69
2022/03/07 02:53:29;;;;;;;5.68;2.65;;;-1.60;99.90;;;;;;5087331;28;20051;-72
2022/03/07 02:55:56;;;;;;;5.90;2.83;;;-1.60;99.90;;;;;;5087311;28;20044;-66
2022/03/07 02:58:22;;;;;;;5.47;2.92;;;-1.60;99.90;;;;;;5105830;28;20047;-69
2022/03/07 03:00:48;;;;;;;5.68;2.55;;;-1.70;99.90;;;;;;5107460;28;20040;-70
2022/03/07 03:03:13;;;;;;;4.45;2.53;;;-1.70;99.90;;;;;;5101891;28;20044;-68
2022/03/07 03:05:39;;;;;;;3.70;2.72;;;-1.70;99.90;;;;;;5107288;28;20046;-73
2022/03/07 03:08:05;;;;;;;5.20;2.83;;;-1.70;99.90;;;;;;5107615;28;20048;-70
2022/03/07 03:10:30;;;;;;;5.32;3.17;;;-1.80;99.90;;;;;;5110085;27;20047;-70
2022/03/07 03:12:56;;;;;;;5.70;2.70;;;-1.80;99.90;;;;;;5109409;28;20047;-63
2022/03/07 03:15:22;;;;;;;4.05;2.42;;;-1.80;99.90;;;;;;5100204;28;20047;-65
2022/03/07 03:17:48;;;;;;;4.85;2.63;;;-1.80;99.90;;;;;;5099669;28;20040;-70
2022/03/07 03:20:16;;;;;;;4.57;3.70;;;-1.80;99.90;;;;;;5090788;28;20126;-57
2022/03/07 03:22:43;;;;;;;3.75;3.08;;;-1.90;99.90;;;;;;5090698;28;20044;-56
2022/03/07 03:25:10;;;;;;;5.47;3.38;;;-1.90;99.90;;;;;;5094207;28;20409;-56
2022/03/07 03:27:37;;;;;;;5.72;2.60;;;-1.90;99.90;;;;;;5110566;28;20399;-56
2022/03/07 03:30:08;;;;;;;3.45;2.63;;;-1.90;99.90;;;;;;5110427;28;20122;-57
2022/03/07 03:32:34;;;;;;;4.95;3.70;;;-1.90;99.90;;;;;;5109721;28;20389;-56
2022/03/07 03:34:59;;;;;;;5.68;2.75;;;-1.90;99.90;;;;;;5110231;28;20069;-56
2022/03/07 03:37:25;;;;;;;4.43;2.13;;;-2.00;99.90;;;;;;5110424;28;20485;-56
2022/03/07 03:39:51;;;;;;;7.65;2.78;;;-2.00;99.90;;;;;;5109413;28;20047;-68
2022/03/07 03:42:17;;;;;;;4.65;2.65;;;-1.90;99.90;;;;;;5110533;28;20047;-69
2022/03/07 03:44:43;;;;;;;4.35;2.75;;;-2.00;99.90;;;;;;5110280;28;20134;-65
2022/03/07 03:47:09;;;;;;;4.10;2.70;;;-2.00;99.90;;;;;;5111268;28;20049;-58
2022/03/07 03:49:34;;;;;;;3.25;2.30;;;-2.00;99.90;;;;;;5110474;28;20150;-61
2022/03/07 03:52:00;;;;;;;3.55;2.40;;;-2.00;99.90;;;;;;5110577;28;20469;-65
2022/03/07 03:54:26;;;;;;;4.38;2.90;;;-2.00;99.90;;;;;;5110317;28;20044;-71
2022/03/07 03:56:51;;;;;;;3.30;3.00;;;-2.10;99.90;;;;;;5111012;28;20048;-71
2022/03/07 03:59:17;;;;;;;5.05;2.65;;;-2.10;99.90;;;;;;5110414;28;20057;-70
2022/03/07 04:01:47;;;;;;;4.93;2.85;;;-2.10;99.90;;;;;;5110704;28;20084;-73
2022/03/07 04:04:13;;;;;;;4.07;2.38;;;-2.10;99.90;;;;;;5107951;28;20127;-73
2022/03/07 04:06:40;;;;;;;4.82;2.55;;;-2.10;99.90;;;;;;5110479;28;20074;-74
2022/03/07 04:09:19;;;;;;;4.00;2.58;;;-2.10;99.90;;;;;;5102080;28;20063;-65
2022/03/07 04:11:46;;;;;;;6.22;2.72;;;-2.20;99.90;;;;;;5088905;28;20059;-65
2022/03/07 04:14:12;;;;;;;4.05;2.35;;;-2.20;99.90;;;;;;5097321;28;20123;-70
2022/03/07 04:16:38;;;;;;;6.18;2.55;;;-2.20;99.90;;;;;;5107909;28;20123;-56
2022/03/07 04:19:09;;;;;;;4.70;2.13;;;-2.20;99.90;;;;;;5094961;28;20131;-62
2022/03/07 04:21:36;;;;;;;6.25;3.03;;;-2.20;99.90;;;;;;5106651;28;20369;-56
2022/03/07 04:24:03;;;;;;;5.38;2.67;;;-2.60;99.90;;;;;;5109334;28;20051;-61
2022/03/07 04:26:29;;;;;;;4.40;3.72;;;-2.20;99.90;;;;;;5110108;28;20040;-71
2022/03/07 04:28:54;;;;;;;5.88;2.88;;;-2.30;99.90;;;;;;5110049;28;20463;-65
2022/03/07 04:31:21;;;;;;;5.72;2.85;;;-1.20;99.90;;;;;;5109902;28;20126;-60
2022/03/07 04:33:46;;;;;;;5.30;3.35;;;-2.30;99.90;;;;;;5109926;28;20047;-70
2022/03/07 04:36:15;;;;;;;3.88;2.30;;;-2.30;99.90;;;;;;5109539;28;20145;-66
2022/03/07 04:38:40;;;;;;;7.60;3.05;;;-2.30;99.90;;;;;;5109487;28;20186;-58
2022/03/07 04:41:06;;;;;;;6.47;3.00;;;-2.30;99.90;;;;;;5109485;28;20461;-63
2022/03/07 04:43:32;;;;;;;5.88;2.90;;;-2.30;99.90;;;;;;5109885;28;20048;-63
2022/03/07 04:45:58;;;;;;;9.27;3.00;;;-1.70;99.90;;;;;;5109576;28;20048;-73
2022/03/07 04:48:24;;;;;;;6.55;2.72;;;-2.40;99.90;;;;;;5109652;28;20118;-60
2022/03/07 04:50:50;;;;;;;6.30;3.20;;;-3.50;99.90;;;;;;5109627;28;20501;-74
2022/03/07 04:53:16;;;;;;;3.45;2.60;;;-2.30;99.90;;;;;;5108091;28;20036;-61
2022/03/07 04:55:41;;;;;;;5.03;2.80;;;-2.40;99.90;;;;;;5088915;28;20090;-69
2022/03/07 04:58:07;;;;;;;3.80;2.70;;;-2.40;99.90;;;;;;5100691;28;20043;-72
2022/03/07 05:00:33;;;;;;;4.90;2.88;;;-2.40;99.90;;;;;;5109571;28;20046;-72
2022/03/07 05:02:59;;;;;;;4.45;3.08;;;-2.40;99.90;;;;;;5107906;27;20482;-66
2022/03/07 05:05:25;;;;;;;10.57;3.72;;;-2.50;99.90;;;;;;5108016;28;20078;-62
2022/03/07 05:07:50;;;;;;;7.40;3.13;;;-2.40;99.90;;;;;;5091156;28;20482;-66
2022/03/07 05:10:20;;;;;;;6.63;2.70;;;-2.50;99.90;;;;;;5107912;28;20074;-56
2022/03/07 05:12:47;;;;;;;6.32;3.38;;;-2.50;99.90;;;;;;5109403;28;20051;-56
2022/03/07 05:15:13;;;;;;;5.70;3.28;;;-2.50;99.90;;;;;;5098749;28;20109;-56
2022/03/07 05:17:42;;;;;;;2.83;2.40;;;-2.50;99.90;;;;;;5092980;28;20096;-56
2022/03/07 05:20:09;;;;;;;3.40;2.80;;;-2.50;99.90;;;;;;5108998;28;20048;-56
2022/03/07 05:22:34;;;;;;;5.07;3.20;;;-2.60;99.90;;;;;;5091782;28;20769;-56
2022/03/07 05:25:00;;;;;;;5.78;2.67;;;-2.60;99.90;;;;;;5092133;28;20118;-55
2022/03/07 05:27:26;;;;;;;4.53;2.85;;;-2.60;99.90;;;;;;5107270;28;20050;-57
2022/03/07 05:29:51;;;;;;;4.35;2.45;;;-2.60;99.90;;;;;;5109042;28;20054;-57
2022/03/07 05:32:17;;;;;;;7.22;2.85;;;-2.60;99.90;;;;;;5108121;28;20124;-58
2022/03/07 05:34:45;;;;;;;5.95;2.60;;;-2.60;99.90;;;;;;5108931;28;20050;-58
2022/03/07 05:37:11;;;;;;;3.30;2.97;;;-2.60;99.90;;;;;;5108596;28;20071;-57
2022/03/07 05:39:37;;;;;;;4.03;2.40;;;-2.60;99.90;;;;;;5107826;28;20056;-58
2022/03/07 05:42:06;;;;;;;4.72;2.63;;;-2.60;99.90;;;;;;5091614;28;20465;-58
2022/03/07 05:44:32;;;;;;;5.57;3.33;;;-2.70;99.90;;;;;;5088266;28;20056;-58
2022/03/07 05:46:58;;;;;;;4.32;3.35;;;-2.70;99.90;;;;;;5088022;28;20051;-58
2022/03/07 05:49:23;;;;;;;3.42;2.17;;;-2.70;99.90;;;;;;5088275;28;20044;-58
2022/03/07 05:51:49;;;;;;;5.85;2.70;;;-2.70;99.90;;;;;;5088528;28;20040;-58
2022/03/07 05:54:15;;;;;;;4.78;2.65;;;-2.70;99.90;;;;;;5086476;28;20048;-56
2022/03/07 05:56:40;;;;;;;5.72;3.03;;;-2.70;99.90;;;;;;5088033;28;20055;-57
2022/03/07 05:59:07;;;;;;;3.70;2.33;;;-2.70;99.90;;;;;;5106658;28;20048;-56
2022/03/07 06:01:32;;;;;;;4.07;2.63;;;-2.70;99.90;;;;;;5101752;28;20515;-56
2022/03/07 06:03:58;;;;;;;4.35;2.78;;;-2.70;99.90;;;;;;5101004;28;20044;-57
2022/03/07 06:06:24;;;;;;;4.28;2.55;;;-2.70;99.90;;;;;;5106711;28;20043;-56
2022/03/07 06:08:49;;;;;;;4.78;2.67;;;-2.70;99.90;;;;;;5103940;28;20039;-56
2022/03/07 06:11:15;;;;;;;8.43;3.60;;;-2.70;99.90;;;;;;5099284;28;20079;-58
2022/03/07 06:13:41;;;;;;;3.92;3.03;;;-2.70;99.90;;;;;;5096927;28;20447;-58
2022/03/07 06:16:06;;;;;;;2.72;2.47;;;-2.70;99.90;;;;;;5097856;28;20047;-58
2022/03/07 06:18:32;;;;;;;5.32;2.30;;;-2.70;99.90;;;;;;5102863;28;20401;-57
2022/03/07 06:20:58;;;;;;;4.60;2.42;;;-2.70;99.90;;;;;;5106623;28;20388;-56
2022/03/07 06:23:24;;;;;;;4.82;2.92;;;-2.70;99.90;;;;;;5107050;28;20043;-56
2022/03/07 06:25:49;;;;;;;5.57;3.40;;;-2.60;99.90;;;;;;5106796;28;20188;-58
2022/03/07 06:28:16;;;;;;;6.85;3.53;;;-2.60;99.90;;;;;;5106848;28;20087;-57
2022/03/07 06:30:42;;;;;;;4.13;3.00;;;-2.60;99.90;;;;;;5106985;28;20040;-57
2022/03/07 06:33:07;;;;;;;4.88;2.97;;;-2.50;99.90;;;;;;5099543;28;20052;-58
2022/03/07 06:35:33;;;;;;;5.55;2.88;;;-1.30;99.90;;;;;;5100893;28;20147;-58
2022/03/07 06:37:59;;;;;;;7.15;3.30;;;-2.50;99.90;;;;;;5097574;28;20101;-57
2022/03/07 06:40:26;;;;;;;8.40;3.83;;;-2.50;99.90;;;;;;5087568;28;20052;-58
2022/03/07 06:42:52;;;;;;;4.57;3.25;;;-2.40;99.90;;;;;;5090164;28;20048;-58
2022/03/07 06:45:18;;;;;;;6.15;3.75;;;-2.40;99.90;;;;;;5101644;27;20512;-59
2022/03/07 06:47:45;;;;;;;5.35;3.00;;;-2.30;99.90;;;;;;5121416;27;20058;-58
2022/03/07 06:50:11;;;;;;;6.32;3.80;;;-2.20;99.90;;;;;;5120274;27;20050;-58
2022/03/07 06:52:37;;;;;;;5.07;2.80;;;-2.20;99.90;;;;;;5132334;27;20404;-71
2022/03/07 06:55:04;;;;;;;7.60;3.80;;;-2.10;99.90;;;;;;5131834;27;20043;-67
2022/03/07 06:57:30;;;;;;;4.60;3.20;;;-2.00;99.90;;;;;;5125614;27;20120;-74
2022/03/07 06:59:55;;;;;;;5.22;3.53;;;-1.90;99.90;;;;;;5098171;28;20036;-69
2022/03/07 07:02:21;;;;;;;4.35;3.15;;;-1.80;99.90;;;;;;5106541;28;20043;-69
2022/03/07 07:04:47;;;;;;;5.00;2.72;;;-1.70;99.90;;;;;;5110407;28;20104;-74
2022/03/07 07:07:14;;;;;;;6.03;3.25;;;-1.60;99.90;;;;;;5111244;28;20545;-70
2022/03/07 07:09:41;;;;;;;5.88;3.63;;;-1.50;99.90;;;;;;5111184;28;20046;-67
2022/03/07 07:12:08;;;;;;;6.45;3.75;;;-1.40;99.90;;;;;;5111301;28;20393;-71
2022/03/07 07:14:34;;;;;;;4.38;3.33;;;-1.30;99.90;;;;;;5106586;28;20455;-57
2022/03/07 07:17:00;;;;;;;4.85;3.30;;;-1.10;99.90;;;;;;5094762;28;20040;-56
2022/03/07 07:19:25;;;;;;;6.88;3.40;;;-1.00;99.90;;;;;;5091101;28;20050;-56
2022/03/07 07:21:51;;;;;;;8.73;3.45;;;-0.80;99.90;;;;;;5096963;28;20098;-56
2022/03/07 07:24:17;;;;;;;4.72;3.22;;;-0.70;99.90;;;;;;5088950;28;20048;-56
2022/03/07 07:26:43;;;;;;;6.68;3.50;;;-0.30;99.90;;;;;;5089126;28;20044;-56
2022/03/07 07:29:08;;;;;;;7.93;3.83;;;-0.70;99.90;;;;;;5088943;28;20054;-56
2022/03/07 07:31:34;;;;;;;5.30;3.08;;;-0.40;99.90;;;;;;5088001;28;20044;-57
2022/03/07 07:34:00;;;;;;;3.80;2.95;;;-0.30;99.90;;;;;;5107802;28;20100;-68
2022/03/07 07:36:26;;;;;;;7.30;3.88;;;-0.20;99.90;;;;;;5103240;27;20132;-65
2022/03/07 07:38:51;;;;;;;6.88;3.53;;;-0.10;99.90;;;;;;5098960;28;20055;-58
2022/03/07 07:41:17;;;;;;;10.73;4.55;;;0.00;99.90;;;;;;5108784;28;20035;-61
2022/03/07 07:43:43;;;;;;;10.57;4.53;;;0.10;99.90;;;;;;5109440;28;20044;-65
2022/03/07 07:46:08;;;;;;;21.83;5.55;;;0.10;99.90;;;;;;5109098;28;20043;-65
2022/03/07 07:48:34;;;;;;;11.70;5.38;;;0.90;99.90;;;;;;5109679;28;20142;-62
2022/03/07 07:51:00;;;;;;;19.42;4.88;;;0.40;99.90;;;;;;5109698;28;20028;-58
2022/03/07 07:53:25;;;;;;;12.75;5.45;;;0.60;99.90;;;;;;5108752;28;20533;-57
2022/03/07 07:55:51;;;;;;;17.42;5.45;;;1.00;99.90;;;;;;5104354;28;20056;-56
2022/03/07 07:58:17;;;;;;;9.32;4.50;;;1.30;99.90;;;;;;5108618;28;20047;-56
2022/03/07 08:00:42;;;;;;;13.70;5.43;;;1.60;99.90;;;;;;5106329;28;20070;-57
2022/03/07 08:03:08;;;;;;;17.13;6.03;;;1.80;99.90;;;;;;5106258;28;20105;-58
2022/03/07 08:05:36;;;;;;;17.38;5.80;;;2.20;99.90;;;;;;5109321;28;20039;-58
2022/03/07 08:08:02;;;;;;;7.65;4.30;;;2.20;99.90;;;;;;5108083;28;20891;-57
2022/03/07 08:10:28;;;;;;;9.95;4.55;;;2.30;99.90;;;;;;5106501;27;20048;-56
2022/03/07 08:12:53;;;;;;;8.70;4.43;;;2.50;99.90;;;;;;5098266;28;20125;-61
2022/03/07 08:15:20;;;;;;;7.00;3.70;;;2.60;99.90;;;;;;5104173;28;20189;-60
2022/03/07 08:17:49;;;;;;;7.95;4.20;;;2.70;99.90;;;;;;5095016;28;20048;-60
2022/03/07 08:20:20;;;;;;;8.93;3.72;;;2.80;99.90;;;;;;5108239;28;20079;-59
2022/03/07 08:22:47;;;;;;;6.03;3.92;;;3.00;99.90;;;;;;5109377;28;20043;-68
2022/03/07 08:25:13;;;;;;;5.22;3.67;;;3.20;99.90;;;;;;5108789;28;20047;-64
2022/03/07 08:27:39;;;;;;;8.85;3.85;;;3.30;99.90;;;;;;5109333;28;20054;-58
2022/03/07 08:30:07;;;;;;;6.30;4.50;;;3.60;99.90;;;;;;5102258;28;20040;-60
2022/03/07 08:32:37;;;;;;;12.27;4.13;;;3.70;99.90;;;;;;5109216;28;20047;-60
2022/03/07 08:35:04;;;;;;;15.95;5.22;;;3.80;99.90;;;;;;5098514;28;20035;-63
2022/03/07 08:37:30;;;;;;;10.38;5.55;;;3.90;99.90;;;;;;5094248;28;20051;-62
2022/03/07 08:39:56;;;;;;;13.00;6.40;;;3.90;99.90;;;;;;5105934;28;20108;-64
2022/03/07 08:42:22;;;;;;;10.48;4.45;;;4.20;99.90;;;;;;5103063;28;20043;-60
2022/03/07 08:44:47;;;;;;;8.63;5.18;;;4.40;99.90;;;;;;5099143;28;20639;-63
2022/03/07 08:47:13;;;;;;;5.68;3.38;;;4.60;99.90;;;;;;5101556;28;20405;-63
2022/03/07 08:49:39;;;;;;;8.45;3.92;;;4.60;99.90;;;;;;5105225;28;20037;-62
2022/03/07 08:52:05;;;;;;;9.32;3.75;;;4.70;99.90;;;;;;5108103;28;20558;-64
2022/03/07 08:54:31;;;;;;;7.28;3.70;;;4.80;99.90;;;;;;5107370;28;20096;-66
2022/03/07 08:56:57;;;;;;;6.45;3.30;;;5.00;99.90;;;;;;5106059;28;20083;-57
2022/03/07 08:59:27;;;;;;;5.78;2.90;;;5.20;99.90;;;;;;5096234;28;20087;-57
2022/03/07 09:01:59;;;;;;;6.57;2.15;;;5.30;99.90;;;;;;5106651;27;20044;-57
2022/03/07 09:04:25;;;;;;;7.32;2.08;;;5.60;99.90;;;;;;5103746;28;20378;-61
2022/03/07 09:06:52;;;;;;;5.63;2.30;;;5.70;99.90;;;;;;5107195;27;20083;-58
2022/03/07 09:09:17;;;;;;;6.68;1.70;;;5.90;99.90;;;;;;5098577;28;20576;-57
2022/03/07 09:11:43;;;;;;;5.57;2.03;;;6.10;99.90;;;;;;5091805;28;20048;-62
2022/03/07 09:14:12;;;;;;;6.15;2.13;;;6.50;99.90;;;;;;5101764;28;20036;-64
2022/03/07 09:16:38;;;;;;;3.03;1.60;;;6.80;99.90;;;;;;5106804;28;20046;-62
2022/03/07 09:19:04;;;;;;;4.30;2.20;;;7.00;99.90;;;;;;5089629;27;20043;-64
2022/03/07 09:21:29;;;;;;;4.38;1.75;;;7.30;99.90;;;;;;5088141;28;20390;-63
2022/03/07 09:23:58;;;;;;;9.63;4.13;;;7.80;99.90;;;;;;5088068;28;20044;-60
2022/03/07 09:26:24;;;;;;;5.15;1.70;;;7.90;99.90;;;;;;5106823;28;20409;-65
2022/03/07 09:28:50;;;;;;;2.88;2.20;;;8.40;99.90;;;;;;5104565;28;20035;-56
2022/03/07 09:31:15;;;;;;;2.88;1.70;;;8.80;99.90;;;;;;5101891;28;20035;-57
2022/03/07 09:33:41;;;;;;;2.70;2.25;;;9.10;99.90;;;;;;5106097;28;20134;-58
2022/03/07 09:36:08;;;;;;;5.72;1.77;;;9.20;99.90;;;;;;5106972;28;20477;-59
2022/03/07 09:38:36;;;;;;;9.95;2.28;;;9.50;99.90;;;;;;5107642;28;20079;-58
2022/03/07 09:41:02;;;;;;;4.25;2.42;;;10.10;99.90;;;;;;5106902;28;20055;-57
2022/03/07 09:43:28;;;;;;;3.92;2.30;;;10.60;99.90;;;;;;5106890;28;20122;-58
2022/03/07 09:45:54;;;;;;;4.20;1.80;;;10.70;99.90;;;;;;5107706;28;20545;-59
2022/03/07 09:48:23;;;;;;;5.90;2.63;;;11.00;99.90;;;;;;5096738;28;20035;-57
2022/03/07 09:50:48;;;;;;;2.13;1.77;;;11.50;99.90;;;;;;5101332;28;20043;-61
2022/03/07 09:53:16;;;;;;;6.05;1.85;;;11.50;99.90;;;;;;5098706;28;20074;-63
2022/03/07 09:55:42;;;;;;;4.13;1.30;;;11.10;99.90;;;;;;5101654;28;20077;-64
2022/03/07 09:58:08;;;;;;;5.55;1.60;;;11.60;99.90;;;;;;5107280;28;20043;-64
2022/03/07 10:00:35;;;;;;;2.45;1.33;;;12.20;99.90;;;;;;5107066;28;20046;-64
2022/03/07 10:03:05;;;;;;;3.28;1.63;;;12.90;99.90;;;;;;5105461;28;20490;-59
2022/03/07 10:05:36;;;;;;;4.78;1.52;;;12.90;99.90;;;;;;5107840;28;20058;-65
2022/03/07 10:08:03;;;;;;;4.00;1.20;;;13.10;99.90;;;;;;5095019;28;20040;-57
2022/03/07 10:10:31;;;;;;;5.20;1.70;;;13.80;99.90;;;;;;5108750;28;20047;-58
2022/03/07 10:13:01;;;;;;;4.78;1.42;;;13.70;99.90;;;;;;5117158;27;20044;-58
2022/03/07 10:15:27;;;;;;;7.72;2.25;;;14.00;99.90;;;;;;5100223;28;20048;-58
2022/03/07 10:17:54;;;;;;;4.22;1.77;;;13.70;99.90;;;;;;5088484;28;20485;-57
2022/03/07 10:20:22;;;;;;;3.75;1.50;;;13.70;99.90;;;;;;5098092;28;20111;-57
2022/03/07 10:22:50;;;;;;;5.28;1.80;;;13.70;99.90;;;;;;5104804;28;20040;-57
2022/03/07 10:25:21;;;;;;;6.03;2.00;;;13.90;99.90;;;;;;5111170;28;20047;-56
2022/03/07 10:27:49;;;;;;;3.72;2.30;;;13.80;99.90;;;;;;5110861;27;20405;-58
2022/03/07 10:30:21;;;;;;;4.20;2.58;;;13.50;99.90;;;;;;5098994;28;20458;-58
2022/03/07 10:32:55;;;;;;;5.50;2.78;;;13.90;99.90;;;;;;5099527;28;20517;-57
2022/03/07 10:35:26;;;;;;;3.95;1.98;;;14.00;99.90;;;;;;5100951;28;20087;-57
2022/03/07 10:37:59;;;;;;;4.68;2.28;;;13.90;99.90;;;;;;5099571;27;20048;-57
2022/03/07 10:40:25;;;;;;;6.40;2.30;;;14.00;99.90;;;;;;5122399;27;20397;-58
2022/03/07 10:42:54;;;;;;;4.80;2.50;;;13.50;99.90;;;;;;5111335;28;20324;-58
2022/03/07 10:45:21;;;;;;;6.15;2.00;;;13.00;99.90;;;;;;5105214;28;20101;-58
2022/03/07 10:47:55;;;;;;;8.13;2.85;;;13.50;99.90;;;;;;5093643;28;20471;-58
2022/03/07 10:50:26;;;;;;;5.55;2.33;;;13.20;99.90;;;;;;5102394;28;20527;-58
2022/03/07 10:52:59;;;;;;;4.30;2.03;;;13.60;99.90;;;;;;5101838;28;20054;-58
2022/03/07 10:55:27;;;;;;;7.22;2.55;;;14.10;99.90;;;;;;5103236;28;20054;-58
2022/03/07 10:57:53;;;;;;;4.35;2.13;;;14.20;99.90;;;;;;5110749;28;20035;-58
2022/03/07 11:00:20;;;;;;;7.18;2.50;;;14.30;99.90;;;;;;5109839;28;20050;-58
2022/03/07 11:02:48;;;;;;;5.25;2.05;;;13.80;99.90;;;;;;5108641;28;20043;-58
2022/03/07 11:05:15;;;;;;;8.27;2.25;;;13.50;99.90;;;;;;5105104;28;20588;-56
2022/03/07 11:07:43;;;;;;;4.25;2.03;;;13.90;99.90;;;;;;5110224;28;20052;-63
2022/03/07 11:10:11;;;;;;;3.42;1.55;;;13.60;99.90;;;;;;5094772;28;20501;-65
2022/03/07 11:12:38;;;;;;;2.70;1.50;;;13.60;99.90;;;;;;5110585;28;20048;-65
2022/03/07 11:15:10;;;;;;;4.15;1.60;;;14.20;99.90;;;;;;5093492;28;20047;-65
2022/03/07 11:17:44;;;;;;;3.70;1.73;;;14.20;99.90;;;;;;5094793;28;20552;-60
2022/03/07 11:20:13;;;;;;;;;;;13.90;99.90;;;;;;5098064;28;20047;-64
2022/03/07 11:22:39;;;;;;;3.35;0.85;;;14.70;99.90;;;;;;5107026;28;20605;-64
2022/03/07 11:25:07;;;;;;;3.05;0.90;;;15.10;99.90;;;;;;5106436;28;20150;-65
2022/03/07 11:27:35;;;;;;;4.18;1.42;;;15.40;99.90;;;;;;5107045;27;20143;-58
2022/03/07 11:30:16;;;;;;;2.75;1.08;;;15.60;99.90;;;;;;5094435;28;20155;-58
2022/03/07 11:32:42;;;;;;;1.38;1.00;;;15.60;99.60;;;;;;5105225;28;20036;-58
2022/03/07 11:35:09;;;;;;;1.08;0.98;;;15.20;99.90;;;;;;5106591;28;20417;-58
2022/03/07 11:37:35;;;;;;;3.10;0.90;;;14.70;99.90;;;;;;5101334;28;20519;-57
2022/03/07 11:40:14;;;;;;;1.80;0.90;;;14.30;99.90;;;;;;5097336;28;20113;-58
2022/03/07 11:42:40;;;;;;;2.28;1.00;;;14.80;99.90;;;;;;5099997;28;20513;-57
2022/03/07 11:45:07;;;;;;;4.03;2.33;;;17.00;99.70;;;;;;5099964;28;20050;-56
2022/03/07 11:47:38;;;;;;;4.50;1.20;;;19.30;94.70;;;;;;5107634;28;20050;-57
2022/03/07 11:50:05;;;;;;;4.03;1.48;;;21.60;94.00;;;;;;5091826;28;20044;-57
2022/03/07 11:52:31;;;;;;;6.57;2.50;;;19.90;93.80;;;;;;5107179;28;20123;-56
2022/03/07 11:55:01;;;;;;;6.18;2.50;;;20.90;93.80;;;;;;5097569;28;20050;-59
2022/03/07 11:57:37;;;;;;;7.05;2.92;;;21.50;91.40;;;;;;5101383;28;20040;-58
2022/03/07 12:00:34;;;;;;;4.10;1.83;;;21.30;86.40;;;;;;5098935;28;20036;-59
2022/03/07 12:03:11;;;;;;;1.65;1.27;;;18.20;87.50;;;;;;5104303;27;20048;-57
2022/03/07 12:05:37;;;;;;;5.20;2.05;;;18.00;92.10;;;;;;5099635;28;20056;-57
2022/03/07 12:08:21;;;;;;;2.22;1.20;;;16.90;92.70;;;;;;5106179;28;20043;-56
2022/03/07 12:10:54;;;;;;;5.28;1.52;;;16.30;92.50;;;;;;5093704;28;20039;-58
2022/03/07 12:13:20;;;;;;;5.87;1.30;;;15.80;93.20;;;;;;5103805;28;20126;-62
2022/03/07 12:15:53;;;;;;;3.65;1.50;;;15.40;94.30;;;;;;5094835;28;20052;-60
2022/03/07 12:18:20;;;;;;;2.70;1.25;;;17.50;93.20;;;;;;5092362;28;20844;-62
2022/03/07 12:20:59;;;;;;;1.80;1.02;;;19.20;89.70;;;;;;5097576;28;20043;-60
2022/03/07 12:23:34;;;;;;;3.55;0.93;;;20.90;85.90;;;;;;5099417;28;20040;-62
2022/03/07 12:26:03;;;;;;;1.13;0.82;;;23.10;80.60;;;;;;5099894;28;20499;-62
2022/03/07 12:28:40;;;;;;;1.95;0.88;;;22.90;82.30;;;;;;5097612;28;20406;-62
2022/03/07 12:31:07;;;;;;;1.13;1.02;;;22.10;79.00;;;;;;5098761;28;20050;-62
2022/03/07 12:33:34;;;;;;;2.47;1.20;;;20.70;81.90;;;;;;5106478;28;20051;-65
2022/03/07 12:36:12;;;;;;;1.70;1.40;;;19.80;82.70;;;;;;5105243;28;20059;-65
2022/03/07 12:38:55;;;;;;;2.13;1.30;;;19.00;80.70;;;;;;5088822;28;20051;-60
2022/03/07 12:41:32;;;;;;;2.03;1.33;;;18.60;81.80;;;;;;5099408;28;20047;-63
2022/03/07 12:43:59;;;;;;;1.45;0.90;;;18.00;83.80;;;;;;5104620;28;20044;-58
2022/03/07 12:46:25;;;;;;;1.88;1.20;;;17.60;86.30;;;;;;5101035;28;20150;-57
2022/03/07 12:48:53;;;;;;;1.27;0.98;;;17.30;86.60;;;;;;5104388;28;20048;-57